Weather observations for the past three days for
Spearfish / Clyde Ice
Metric (Imperial)
Date Time (mdt) Wind (kph) Vis. (km) Weather Sky Cond. Temperature (ºC) Relative Humidity Wind Chill (°C) Heat Index (°C) Pressure Precipitation (cm)
Air Dwpt 6 hour altimeter (cm) sea level (mb) 1 hr 3 hr 6 hr
Max. Min.
08 16:15 NW 28 G 37 16.09 Fair CLR 20 -1 24% 75.87 0.0
08 15:55 NW 20 G 39 16.09 Fair CLR 19 0 28% 75.9 0.0
08 15:35 NW 28 G 41 16.09 Fair CLR 20 0 26% 75.9 0.0
08 15:15 NW 24 G 41 16.09 A Few Clouds FEW085 20 -1 24% 75.92 0.0
08 14:55 NW 26 G 50 16.09 A Few Clouds FEW080 20 0 26% 75.95 0.0
08 14:35 NW 26 G 39 16.09 A Few Clouds FEW090 19 0 28% 75.95 0.0
08 14:15 N 24 G 44 16.09 Partly Cloudy SCT080 20 1 28% 75.95 0.0
08 13:55 N 22 G 41 16.09 A Few Clouds FEW080 19 1 30% 75.97 0.0
08 13:35 NW 28 G 52 16.09 Fair CLR 19 0 28% 75.97 0.0
08 13:15 NW 35 G 52 16.09 A Few Clouds and Breezy FEW075 18 0 30% 76 0.0
08 12:55 NW 26 G 46 16.09 A Few Clouds FEW070 FEW100 19 1 30% 76 0.0
08 12:35 NW 26 G 39 16.09 Partly Cloudy SCT070 SCT085 SCT100 18 1 32% 76 0.0
08 12:15 NW 24 G 35 16.09 Partly Cloudy SCT070 SCT080 17 1 34% 76.02 0.0
08 11:55 NW 30 16.09 Partly Cloudy SCT070 SCT080 17 1 34% 76.02 0.0
08 11:35 NW 26 G 39 16.09 A Few Clouds FEW065 FEW080 18 2 34% 76.02 0.0
08 11:15 NW 33 16.09 Fair and Breezy CLR 18 2 34% 76.05 0.0
08 10:55 NW 31 16.09 A Few Clouds FEW070 FEW085 17 3 39% 76.05 0.0
08 10:35 NW 26 G 37 16.09 Fair CLR 17 3 39% 76.05 0.0
08 10:15 NW 28 G 39 16.09 Fair CLR 17 3 39% 76.02 0.0
08 09:55 NW 28 G 39 16.09 Fair CLR 16 3 42% 76.05 0.0
08 09:35 NW 26 G 37 16.09 Fair CLR 17 3 39% 76.05 0.0
08 09:15 NW 22 16.09 A Few Clouds FEW090 16 4 45% 76.05 0.0
08 08:55 W 24 16.09 Partly Cloudy SCT090 15 4 48% 76.02 0.0
08 08:35 W 24 G 39 16.09 Mostly Cloudy BKN095 15 4 48% 76.05 0.0
08 08:15 NW 22 G 33 16.09 Mostly Cloudy BKN095 14 3 48% 76.02 0.0
08 07:55 W 26 G 41 16.09 Partly Cloudy SCT090 14 3 48% 76.02 0.0
08 07:35 W 28 G 41 16.09 Mostly Cloudy BKN090 14 3 48% 76.02 0.0
08 07:15 W 17 16.09 Mostly Cloudy BKN090 12 3 54% 76 0.0
08 06:55 W 13 G 24 16.09 Fair CLR 12 3 54% 76 0.0
08 06:35 W 19 16.09 Fair CLR 11 3 58% 75.97 0.0
08 06:15 W 17 16.09 Fair CLR 10 3 62% 8 75.97 0.0
08 05:55 W 13 16.09 Fair CLR 10 2 58% 8 75.97 0.0
08 05:35 W 9 16.09 Fair CLR 9 3 66% 8 75.97 0.0
08 05:15 W 15 16.09 Fair CLR 9 3 66% 7 75.95 0.0
08 04:55 W 15 G 26 16.09 A Few Clouds FEW100 10 3 62% 8 75.97 0.0
08 04:35 W 11 16.09 Partly Cloudy SCT100 9 3 66% 8 75.95 0.0
08 04:15 Vrbl 7 16.09 Mostly Cloudy BKN100 9 3 66% 8 75.95 0.0
08 03:55 W 9 16.09 Overcast OVC095 9 3 66% 8 75.95 0.0
08 03:35 W 9 16.09 Overcast OVC095 9 3 66% 8 75.95 0.0
08 03:15 W 7 16.09 Mostly Cloudy BKN100 9 3 66% 8 75.95 0.0
08 02:55 W 15 16.09 A Few Clouds FEW095 8 2 66% 6 75.95 0.0
08 02:35 W 13 16.09 Fair CLR 8 1 62% 6 75.95 0.0
08 02:15 W 15 16.09 Fair CLR 7 1 66% 5 75.95 0.0
08 01:55 NW 6 16.09 Fair CLR 7 1 66% 75.95 0.0
08 01:35 W 11 16.09 Fair CLR 8 1 62% 6 75.92 0.0
08 01:15 W 11 16.09 Fair CLR 8 1 62% 6 75.95 0.0
08 00:55 W 9 16.09 Fair CLR 9 2 62% 8 75.95 0.0
08 00:35 W 7 16.09 Fair CLR 9 2 62% 8 75.95 0.0
08 00:15 Calm 16.09 Fair CLR 9 3 66% 75.95 0.0
07 23:55 W 11 16.09 Fair CLR 10 3 62% 9 75.95 0.0
07 23:35 W 13 16.09 Fair CLR 10 4 67% 8 75.95 0.0
07 23:15 W 15 16.09 Fair CLR 11 4 62% 75.95 0.0
07 22:55 W 15 16.09 Fair CLR 11 4 62% 75.92 0.0
07 22:35 W 19 16.09 Fair CLR 11 5 67% 75.95 0.0
07 22:15 W 13 16.09 Fair CLR 11 5 67% 75.95 0.0
07 21:55 W 15 16.09 Fair CLR 11 5 67% 75.92 0.0
07 21:35 W 15 16.09 Fair CLR 12 5 63% 75.92 0.0
07 21:15 W 15 16.09 Partly Cloudy SCT085 12 4 58% 75.92 0.0
07 20:55 W 15 16.09 Overcast OVC090 13 4 55% 75.92 0.0
07 20:35 W 13 16.09 Mostly Cloudy BKN085 12 4 58% 75.9 0.0
07 20:15 W 17 16.09 Overcast OVC080 13 4 55% 75.87 0.0
07 19:55 W 15 16.09 Overcast OVC080 14 4 51% 75.87 0.0
07 19:35 W 20 16.09 Mostly Cloudy BKN080 14 4 51% 75.84 0.0
07 19:15 W 20 16.09 Fair CLR 14 4 51% 75.82 0.0
07 18:55 W 22 16.09 Fair CLR 14 4 51% 75.82 0.0
07 18:35 W 22 G 33 16.09 Fair CLR 15 4 48% 75.79 0.0
07 18:15 W 19 G 31 16.09 A Few Clouds FEW090 15 4 48% 75.79 0.0
07 17:55 W 11 16.09 A Few Clouds FEW090 14 4 51% 75.79 0.0
07 17:35 SW 17 16.09 Fair CLR 14 4 51% 75.79 0.0
07 17:15 W 15 G 24 16.09 Partly Cloudy FEW075 SCT090 14 4 51% 75.82 0.0
07 16:55 W 13 16.09 Partly Cloudy FEW080 SCT090 14 4 51% 75.82 0.0
07 16:35 W 15 16.09 A Few Clouds FEW090 14 5 55% 75.82 0.0
07 16:15 W 17 16.09 A Few Clouds FEW080 14 4 51% 75.82 0.0
07 15:55 W 15 16.09 A Few Clouds FEW070 FEW080 15 1 39% 75.82 0.0
07 15:35 NE 13 16.09 A Few Clouds FEW070 FEW080 15 -1 34% 75.82 0.0
07 15:15 NE 15 16.09 Fair CLR 16 -1 31% 75.82 0.0
07 14:15 NE 13 16.09 A Few Clouds FEW095 16 0 34% 75.82 0.0
07 13:55 NE 13 16.09 Mostly Cloudy FEW080 BKN095 16 0 34% 75.82 0.0
07 13:35 N 9 G 19 16.09 Mostly Cloudy BKN080 16 -1 31% 75.82 0.0
07 13:15 Vrbl 11 G 20 16.09 Partly Cloudy SCT085 16 -1 31% 75.82 0.0
07 12:55 N 11 G 20 16.09 Partly Cloudy SCT070 SCT090 16 -2 29% 75.82 0.0
07 12:35 Vrbl 7 16.09 Overcast OVC070 15 -2 31% 75.82 0.0
07 12:15 NE 11 16.09 Mostly Cloudy BKN070 15 -3 29% 75.84 0.0
07 11:55 N 15 16.09 A Few Clouds FEW070 15 -3 29% 75.84 0.0
07 11:35 Calm 16.09 A Few Clouds FEW110 14 -5 27% 75.84 0.0
07 11:15 Calm 16.09 NULL NULL 13 -5 28% 75.87 0.0
07 10:55 Calm 16.09 Mostly Cloudy FEW070 SCT080 BKN110 13 -4 31% 75.87 0.0
07 10:35 Calm 16.09 Mostly Cloudy SCT070 BKN080 BKN100 11 -4 35% 75.9 0.0
07 10:15 NE 11 16.09 Overcast OVC070 10 -3 40% 9 75.9 0.0
07 09:55 NE 13 16.09 Overcast BKN075 OVC090 10 -3 40% 8 75.92 0.0
07 09:35 NE 6 16.09 Overcast OVC085 10 -3 40% 75.9 0.0
07 09:15 NW 9 16.09 Mostly Cloudy BKN095 11 -5 32% 75.9 0.0
07 08:55 NW 7 16.09 Partly Cloudy SCT110 12 -5 30% 75.87 0.0
07 08:35 Calm 16.09 A Few Clouds FEW110 11 -5 32% 75.87 0.0
07 08:15 N 9 16.09 Fair CLR 11 -4 35% 75.9 0.0
07 07:55 Calm 16.09 Fair CLR 10 -5 35% 75.87 0.0
07 07:35 Calm 16.09 Fair CLR 8 -4 43% 75.87 0.0
07 07:15 Calm 16.09 A Few Clouds FEW100 6 -4 49% 75.87 0.0
07 06:55 Calm 16.09 A Few Clouds FEW100 5 -6 45% 75.84 0.0
07 06:35 Calm 16.09 Fair CLR 3 -6 52% 75.82 0.0
07 06:15 Calm 16.09 Fair CLR 1 -6 60% 75.82 0.0
07 05:55 W 7 16.09 Fair CLR 0 -7 60% -2 75.79 0.0
07 05:35 W 9 16.09 Fair CLR 1 -7 56% -2 75.79 0.0
07 05:15 W 13 16.09 Fair CLR 1 -7 56% -2 75.79 0.0
07 04:55 W 15 16.09 Fair CLR 0 -7 60% -4 75.77 0.0
07 04:35 W 13 16.09 Fair CLR 0 -7 60% -4 75.77 0.0
07 04:15 SW 13 16.09 Fair CLR -1 -7 64% -5 75.74 0.0
07 03:55 SW 7 16.09 Fair CLR -1 -7 64% -3 75.77 0.0
07 03:35 SW 7 16.09 Fair CLR -1 -7 64% -3 75.77 0.0
07 03:15 Calm 16.09 Fair CLR -1 -7 64% 75.79 0.0
07 02:55 SW 7 16.09 Fair CLR -1 -7 64% -3 75.77 0.0
07 02:35 SW 7 16.09 Fair CLR -1 -7 64% -3 75.77 0.0
07 02:15 SW 7 16.09 Fair CLR 0 -7 60% -2 75.77 0.0
07 01:55 S 7 16.09 Fair CLR 0 -7 60% -2 75.74 0.0
07 01:35 Calm 16.09 Fair CLR 0 -7 60% 75.77 0.0
07 01:15 Calm 16.09 Fair CLR 0 -7 60% 75.79 0.0
07 00:55 Calm 16.09 Fair CLR 1 -8 51% 75.79 0.0
07 00:35 S 9 16.09 Fair CLR 0 -7 60% -3 75.77 0.0
07 00:15 Calm 16.09 Fair CLR 2 -8 48% 75.79 0.0
06 23:55 Calm 16.09 Fair CLR 1 -8 51% 75.82 0.0
06 23:35 Calm 16.09 Fair CLR 1 -8 51% 75.82 0.0
06 23:15 SW 15 16.09 Fair CLR 3 -8 45% -0 75.82 0.0
06 22:55 SW 17 16.09 Fair CLR 3 -7 48% -1 75.82 0.0
06 22:35 SW 13 16.09 Fair CLR 3 -7 48% 0 75.84 0.0
06 22:15 SW 9 16.09 Partly Cloudy SCT110 3 -7 48% 1 75.84 0.0
06 21:55 S 9 16.09 Mostly Cloudy BKN120 3 -6 52% 1 75.87 0.0
06 21:35 Vrbl 7 16.09 Partly Cloudy SCT120 5 -6 45% 4 75.87 0.0
06 21:15 S 11 16.09 Mostly Cloudy BKN110 6 -6 42% 4 75.87 0.0
06 20:55 S 9 16.09 Mostly Cloudy BKN110 7 -6 39% 5 75.9 0.0
06 20:35 Calm 16.09 A Few Clouds FEW120 8 -6 37% 75.9 0.0
06 20:15 Calm 16.09 Fair CLR 8 -7 34% 75.92 0.0
06 19:55 W 7 16.09 Fair CLR 9 -9 27% 8 75.92 0.0
06 19:35 W 9 16.09 Fair CLR 10 -9 26% 9 75.92 0.0
06 19:15 W 11 16.09 Fair CLR 10 -10 24% 9 75.92 0.0
06 18:55 W 19 16.09 Fair CLR 11 -10 22% 75.92 0.0
06 18:35 W 17 16.09 Fair CLR 11 -9 24% 75.92 0.0
06 18:15 W 19 16.09 Fair CLR 12 -10 21% 75.92 0.0
06 17:55 W 19 16.09 Fair CLR 11 -10 22% 75.95 0.0
06 17:35 NW 22 16.09 Fair CLR 11 -10 22% 75.95 0.0
06 17:15 W 20 G 44 16.09 Fair CLR 11 -10 22% 75.97 0.0
06 16:55 W 24 G 35 16.09 Fair CLR 12 -10 21% 76 0.0
06 16:35 W 19 G 30 16.09 Fair CLR 12 -9 22% 76 0.0
06 16:15 W 22 16.09 Fair CLR 12 -9 22% 76.02 0.0
06 15:55 NW 26 G 39 16.09 Fair CLR 12 -8 24% 76.05 0.0
06 15:35 W 20 G 37 16.09 Fair CLR 12 -9 22% 76.07 0.0
06 15:15 W 26 G 35 16.09 Fair CLR 11 -9 24% 76.1 0.0
06 14:55 NW 24 G 41 16.09 Fair CLR 11 -9 24% 76.12 0.0
06 14:35 NW 28 16.09 Fair CLR 11 -9 24% 76.15 0.0
06 14:15 W 19 G 39 16.09 Fair CLR 11 -9 24% 76.15 0.0
06 13:55 NW 31 G 43 16.09 Fair CLR 10 -9 26% 7 76.17 0.0
06 13:35 NW 26 16.09 Fair CLR 10 -8 28% 7 76.2 0.0
06 13:15 NW 19 G 37 16.09 Fair CLR 9 -9 27% 7 76.23 0.0
06 12:55 W 24 G 39 16.09 Fair CLR 9 -9 27% 6 76.25 0.0
06 12:35 NW 22 G 37 16.09 Fair CLR 8 -9 29% 5 76.28 0.0
06 12:15 W 20 G 30 16.09 Fair CLR 8 -8 32% 5 76.3 0.0
06 11:55 NW 24 16.09 Fair CLR 8 -10 27% 5 76.33 0.0
06 11:35 NW 19 G 31 16.09 Fair CLR 7 -9 31% 4 76.35 0.0
06 11:15 N 22 16.09 Fair CLR 7 -10 29% 4 76.35 0.0
06 10:55 W 17 G 35 16.09 Fair CLR 6 -10 31% 3 76.38 0.0
06 10:35 NW 13 G 26 16.09 Fair CLR 6 -10 31% 4 76.38 0.0
06 10:15 W 19 G 30 16.09 Fair CLR 6 -10 31% 3 76.4 0.0
06 09:55 W 22 G 33 16.09 Fair CLR 5 -10 33% 1 76.4 0.0
06 09:35 W 20 16.09 Fair CLR 5 -10 33% 1 76.4 0.0
06 09:15 W 19 16.09 Fair CLR 5 -10 33% 2 76.43 0.0
06 08:55 NW 17 G 28 16.09 Fair CLR 4 -10 36% 1 76.43 0.0
06 08:35 W 22 16.09 Fair CLR 4 -10 36% -0 76.43 0.0
06 08:15 W 19 16.09 Fair CLR 3 -10 38% -1 76.43 0.0
06 07:55 W 20 16.09 Fair CLR 3 -9 41% -1 76.43 0.0
06 07:35 W 17 16.09 Fair CLR 2 -9 44% -2 76.43 0.0
06 07:15 W 11 16.09 Fair CLR 1 -8 51% -2 76.43 0.0
06 06:55 Calm 16.09 Fair CLR 0 -8 55% 76.43 0.0
06 06:35 Calm 16.09 Fair CLR -1 -9 55% 76.43 0.0
06 06:15 W 6 16.09 Fair CLR -2 -9 59% 76.4 0.0
06 05:55 W 11 16.09 Fair CLR -3 -9 64% -7 76.4 0.0
06 05:35 W 15 16.09 Fair CLR -3 -9 64% -8 76.4 0.0
06 05:15 W 13 16.09 Fair CLR -3 -9 64% -7 76.4 0.0
06 04:55 W 9 16.09 Fair CLR -2 -9 59% -5 76.4 0.0
06 04:35 W 7 16.09 Mostly Cloudy FEW044 BKN050 -3 -9 64% -6 76.4 0.0
06 04:15 W 9 16.09 Overcast FEW045 OVC050 -3 -9 64% -6 76.4 0.0
06 03:55 Calm 16.09 Mostly Cloudy FEW045 BKN055 -2 -9 59% 76.38 0.0
06 03:35 Calm 16.09 Mostly Cloudy BKN055 -2 -9 59% 76.38 0.0
06 03:15 W 7 16.09 Fair CLR -2 -9 59% -4 76.38 0.0
06 02:55 Calm 16.09 Fair CLR -2 -9 59% 76.38 0.0
06 02:35 Calm 16.09 Fair CLR -2 -10 55% 76.38 0.0
06 02:15 W 7 16.09 Fair CLR -2 -10 55% -4 76.38 0.0
06 01:55 W 7 16.09 Fair CLR -2 -10 55% -4 76.38 0.0
06 01:35 W 7 16.09 Fair CLR -2 -10 55% -4 76.38 0.0
06 01:15 Calm 16.09 Fair CLR -2 -9 59% 76.38 0.0
06 00:55 W 6 16.09 Fair CLR -2 -9 59% 76.38 0.0
06 00:35 W 6 16.09 Fair CLR -1 -9 55% 76.38 0.0
05 23:55 Vrbl 6 16.09 Partly Cloudy SCT050 SCT055 -1 -9 55% 76.38 0.0
05 23:35 W 13 16.09 Mostly Cloudy BKN055 0 -9 51% -4 76.38 0.0
05 23:15 W 15 16.09 Overcast OVC060 1 -9 48% -3 76.38 0.0
05 22:55 W 17 16.09 Overcast OVC060 1 -9 48% -3 76.35 0.0
05 22:35 W 13 G 22 16.09 Overcast OVC060 1 -9 48% -2 76.38 0.0
05 22:15 NW 11 16.09 Overcast OVC060 1 -8 51% -2 76.38 0.0
05 21:55 NW 11 16.09 Overcast BKN055 OVC065 2 -9 44% -1 76.38 0.0
05 21:35 NW 15 16.09 Overcast BKN055 OVC065 2 -9 44% -2 76.38 0.0
05 21:15 NW 13 16.09 Overcast OVC055 2 -8 48% -1 76.35 0.0
05 20:55 NW 7 16.09 Overcast BKN050 OVC070 2 -7 52% 0 76.33 0.0
05 20:35 NW 13 16.09 Overcast OVC050 2 -8 48% -1 76.3 0.0
05 20:15 N 15 16.09 Overcast BKN055 OVC065 2 -8 48% -2 76.28 0.0
05 19:55 NW 19 G 28 16.09 Overcast BKN050 OVC060 3 -8 45% -1 76.25 0.0
05 19:35 N 24 16.09 Overcast BKN050 OVC060 3 -8 45% -2 76.23 0.0
05 19:15 N 22 G 33 16.09 Overcast BKN055 OVC060 4 -8 42% -0 76.2 0.0
05 18:55 NW 22 G 35 16.09 Mostly Cloudy BKN050 BKN060 4 -8 42% -0 76.2 0.0
05 18:35 NW 26 16.09 Mostly Cloudy BKN050 4 -8 42% -0 76.2 0.0
05 18:15 NW 22 G 35 16.09 Mostly Cloudy BKN055 4 -8 42% -0 76.17 0.0
05 17:55 NW 19 16.09 Mostly Cloudy BKN050 BKN060 BKN070 5 -7 42% 2 76.17 0.0
05 17:35 N 13 G 26 16.09 Mostly Cloudy BKN049 BKN060 BKN070 5 -6 45% 2 76.15 0.0
05 17:15 NW 20 G 30 16.09 Mostly Cloudy FEW043 SCT049 BKN055 6 -6 42% 3 76.15 0.0
05 16:55 NW 22 16.09 Mostly Cloudy SCT044 BKN055 5 -5 49% 1 76.15 0.0
05 16:35 NW 30 16.09 NULL NULL 5 -6 45% 0 76.15 0.0
Date Time (mdt) Wind (kph) Vis. (km) Weather Sky Cond. Air Dwpt Max. Min. Relative Humidity Wind Chill (°C) Heat Index (°C) altimeter (cm) sea level (mb) 1 hr 3 hr 6 hr
6 hour
Temperature (ºC) Pressure Precipitation (cm)